sensor_id;sensor_type;location;lat;lon;timestamp;P1;durP1;ratioP1;P2;durP2;ratioP2
69220;SDS011;56331;51.992;20.910;2023-06-14T00:02:12;2.92;;;1.40;;
69220;SDS011;56331;51.992;20.910;2023-06-14T00:04:40;3.72;;;1.00;;
69220;SDS011;56331;51.992;20.910;2023-06-14T00:07:07;2.77;;;1.32;;
69220;SDS011;56331;51.992;20.910;2023-06-14T00:09:34;1.65;;;1.10;;
69220;SDS011;56331;51.992;20.910;2023-06-14T00:12:01;2.22;;;1.20;;
69220;SDS011;56331;51.992;20.910;2023-06-14T00:14:27;3.55;;;1.45;;
69220;SDS011;56331;51.992;20.910;2023-06-14T00:16:54;1.55;;;1.12;;
69220;SDS011;56331;51.992;20.910;2023-06-14T00:19:22;3.12;;;1.20;;
69220;SDS011;56331;51.992;20.910;2023-06-14T00:21:48;1.87;;;1.00;;
69220;SDS011;56331;51.992;20.910;2023-06-14T00:24:15;1.67;;;1.17;;
69220;SDS011;56331;51.992;20.910;2023-06-14T00:26:42;1.32;;;0.90;;
69220;SDS011;56331;51.992;20.910;2023-06-14T00:29:08;1.72;;;0.93;;
69220;SDS011;56331;51.992;20.910;2023-06-14T00:31:34;3.20;;;1.05;;
69220;SDS011;56331;51.992;20.910;2023-06-14T00:34:01;1.70;;;0.98;;
69220;SDS011;56331;51.992;20.910;2023-06-14T00:36:28;1.37;;;1.10;;
69220;SDS011;56331;51.992;20.910;2023-06-14T00:38:54;1.57;;;1.00;;
69220;SDS011;56331;51.992;20.910;2023-06-14T00:41:20;2.40;;;1.20;;
69220;SDS011;56331;51.992;20.910;2023-06-14T00:43:47;1.62;;;1.02;;
69220;SDS011;56331;51.992;20.910;2023-06-14T00:46:13;2.00;;;1.20;;
69220;SDS011;56331;51.992;20.910;2023-06-14T00:48:40;1.00;;;0.80;;
69220;SDS011;56331;51.992;20.910;2023-06-14T00:51:07;1.37;;;0.82;;
69220;SDS011;56331;51.992;20.910;2023-06-14T00:53:34;1.07;;;0.85;;
69220;SDS011;56331;51.992;20.910;2023-06-14T00:56:02;1.15;;;1.00;;
69220;SDS011;56331;51.992;20.910;2023-06-14T00:58:28;1.17;;;0.90;;
69220;SDS011;56331;51.992;20.910;2023-06-14T01:03:31;1.20;;;1.10;;
69220;SDS011;56331;51.992;20.910;2023-06-14T01:08:50;1.42;;;0.93;;
69220;SDS011;56331;51.992;20.910;2023-06-14T01:11:22;1.10;;;0.78;;
69220;SDS011;56331;51.992;20.910;2023-06-14T01:13:49;1.95;;;1.05;;
69220;SDS011;56331;51.992;20.910;2023-06-14T01:16:18;1.90;;;1.05;;
69220;SDS011;56331;51.992;20.910;2023-06-14T01:18:45;1.15;;;1.00;;
69220;SDS011;56331;51.992;20.910;2023-06-14T01:21:20;0.88;;;0.82;;
69220;SDS011;56331;51.992;20.910;2023-06-14T01:23:48;1.57;;;0.80;;
69220;SDS011;56331;51.992;20.910;2023-06-14T01:26:16;1.17;;;1.00;;
69220;SDS011;56331;51.992;20.910;2023-06-14T01:28:43;2.17;;;1.12;;
69220;SDS011;56331;51.992;20.910;2023-06-14T01:31:11;1.55;;;1.02;;
69220;SDS011;56331;51.992;20.910;2023-06-14T01:33:38;2.15;;;0.72;;
69220;SDS011;56331;51.992;20.910;2023-06-14T01:36:04;1.47;;;1.00;;
69220;SDS011;56331;51.992;20.910;2023-06-14T01:38:32;1.25;;;1.05;;
69220;SDS011;56331;51.992;20.910;2023-06-14T01:40:58;1.00;;;0.90;;
69220;SDS011;56331;51.992;20.910;2023-06-14T01:43:27;1.25;;;0.85;;
69220;SDS011;56331;51.992;20.910;2023-06-14T01:45:56;1.35;;;1.00;;
69220;SDS011;56331;51.992;20.910;2023-06-14T01:48:25;1.07;;;0.90;;
69220;SDS011;56331;51.992;20.910;2023-06-14T01:50:52;1.50;;;1.10;;
69220;SDS011;56331;51.992;20.910;2023-06-14T01:53:19;1.45;;;0.93;;
69220;SDS011;56331;51.992;20.910;2023-06-14T01:55:45;0.98;;;0.88;;
69220;SDS011;56331;51.992;20.910;2023-06-14T01:58:13;1.20;;;0.90;;
69220;SDS011;56331;51.992;20.910;2023-06-14T02:00:42;1.10;;;1.00;;
69220;SDS011;56331;51.992;20.910;2023-06-14T02:03:09;0.88;;;0.78;;
69220;SDS011;56331;51.992;20.910;2023-06-14T02:05:37;0.70;;;0.70;;
69220;SDS011;56331;51.992;20.910;2023-06-14T02:08:05;1.27;;;1.00;;
69220;SDS011;56331;51.992;20.910;2023-06-14T02:10:33;1.20;;;0.95;;
69220;SDS011;56331;51.992;20.910;2023-06-14T02:12:59;1.30;;;1.17;;
69220;SDS011;56331;51.992;20.910;2023-06-14T02:15:26;1.70;;;0.90;;
69220;SDS011;56331;51.992;20.910;2023-06-14T02:17:54;1.25;;;1.00;;
69220;SDS011;56331;51.992;20.910;2023-06-14T02:20:21;0.80;;;0.80;;
69220;SDS011;56331;51.992;20.910;2023-06-14T02:22:47;1.52;;;1.10;;
69220;SDS011;56331;51.992;20.910;2023-06-14T02:25:13;1.67;;;1.00;;
69220;SDS011;56331;51.992;20.910;2023-06-14T02:27:41;1.50;;;1.00;;
69220;SDS011;56331;51.992;20.910;2023-06-14T02:30:07;1.60;;;1.00;;
69220;SDS011;56331;51.992;20.910;2023-06-14T02:32:34;0.78;;;0.75;;
69220;SDS011;56331;51.992;20.910;2023-06-14T02:35:01;1.02;;;0.90;;
69220;SDS011;56331;51.992;20.910;2023-06-14T02:37:28;1.12;;;0.90;;
69220;SDS011;56331;51.992;20.910;2023-06-14T02:39:55;1.27;;;1.05;;
69220;SDS011;56331;51.992;20.910;2023-06-14T02:42:22;1.20;;;1.00;;
69220;SDS011;56331;51.992;20.910;2023-06-14T02:44:48;1.05;;;0.95;;
69220;SDS011;56331;51.992;20.910;2023-06-14T02:47:21;1.10;;;0.93;;
69220;SDS011;56331;51.992;20.910;2023-06-14T02:49:45;1.60;;;1.17;;
69220;SDS011;56331;51.992;20.910;2023-06-14T02:52:12;1.02;;;0.90;;
69220;SDS011;56331;51.992;20.910;2023-06-14T02:54:39;0.88;;;0.85;;
69220;SDS011;56331;51.992;20.910;2023-06-14T02:57:05;1.07;;;0.95;;
69220;SDS011;56331;51.992;20.910;2023-06-14T02:59:33;1.02;;;0.80;;
69220;SDS011;56331;51.992;20.910;2023-06-14T03:02:00;0.88;;;0.80;;
69220;SDS011;56331;51.992;20.910;2023-06-14T03:04:27;1.05;;;0.95;;
69220;SDS011;56331;51.992;20.910;2023-06-14T03:06:54;1.25;;;0.93;;
69220;SDS011;56331;51.992;20.910;2023-06-14T03:09:22;1.27;;;1.00;;
69220;SDS011;56331;51.992;20.910;2023-06-14T03:11:49;1.35;;;0.90;;
69220;SDS011;56331;51.992;20.910;2023-06-14T03:14:15;1.30;;;1.20;;
69220;SDS011;56331;51.992;20.910;2023-06-14T03:16:43;1.00;;;0.90;;
69220;SDS011;56331;51.992;20.910;2023-06-14T03:19:11;1.10;;;0.80;;
69220;SDS011;56331;51.992;20.910;2023-06-14T03:21:37;0.85;;;0.82;;
69220;SDS011;56331;51.992;20.910;2023-06-14T03:24:06;1.10;;;1.00;;
69220;SDS011;56331;51.992;20.910;2023-06-14T03:26:32;0.80;;;0.80;;
69220;SDS011;56331;51.992;20.910;2023-06-14T03:28:59;1.80;;;0.93;;
69220;SDS011;56331;51.992;20.910;2023-06-14T03:31:25;1.07;;;0.90;;
69220;SDS011;56331;51.992;20.910;2023-06-14T03:33:53;1.42;;;1.00;;
69220;SDS011;56331;51.992;20.910;2023-06-14T03:36:19;1.07;;;0.85;;
69220;SDS011;56331;51.992;20.910;2023-06-14T03:38:45;1.07;;;0.82;;
69220;SDS011;56331;51.992;20.910;2023-06-14T03:41:12;1.12;;;0.93;;
69220;SDS011;56331;51.992;20.910;2023-06-14T03:43:38;1.22;;;1.00;;
69220;SDS011;56331;51.992;20.910;2023-06-14T03:46:04;1.25;;;0.90;;
69220;SDS011;56331;51.992;20.910;2023-06-14T03:48:31;0.90;;;0.72;;
69220;SDS011;56331;51.992;20.910;2023-06-14T03:50:57;1.02;;;0.78;;
69220;SDS011;56331;51.992;20.910;2023-06-14T03:53:23;1.00;;;0.90;;
69220;SDS011;56331;51.992;20.910;2023-06-14T03:55:50;1.07;;;0.88;;
69220;SDS011;56331;51.992;20.910;2023-06-14T03:58:18;1.10;;;0.90;;
69220;SDS011;56331;51.992;20.910;2023-06-14T04:00:44;1.20;;;0.95;;
69220;SDS011;56331;51.992;20.910;2023-06-14T04:03:15;1.20;;;0.90;;
69220;SDS011;56331;51.992;20.910;2023-06-14T04:05:42;1.02;;;0.93;;
69220;SDS011;56331;51.992;20.910;2023-06-14T04:08:08;0.93;;;0.82;;
69220;SDS011;56331;51.992;20.910;2023-06-14T04:10:36;0.95;;;0.85;;
69220;SDS011;56331;51.992;20.910;2023-06-14T04:13:02;0.80;;;0.80;;
69220;SDS011;56331;51.992;20.910;2023-06-14T04:15:28;1.20;;;1.10;;
69220;SDS011;56331;51.992;20.910;2023-06-14T04:17:55;1.10;;;0.82;;
69220;SDS011;56331;51.992;20.910;2023-06-14T04:20:23;0.95;;;0.72;;
69220;SDS011;56331;51.992;20.910;2023-06-14T04:22:52;1.02;;;0.93;;
69220;SDS011;56331;51.992;20.910;2023-06-14T04:25:19;1.35;;;1.02;;
69220;SDS011;56331;51.992;20.910;2023-06-14T04:27:46;0.85;;;0.80;;
69220;SDS011;56331;51.992;20.910;2023-06-14T04:30:13;1.00;;;0.90;;
69220;SDS011;56331;51.992;20.910;2023-06-14T04:32:39;1.42;;;1.10;;
69220;SDS011;56331;51.992;20.910;2023-06-14T04:35:06;1.05;;;0.80;;
69220;SDS011;56331;51.992;20.910;2023-06-14T04:37:34;1.20;;;1.10;;
69220;SDS011;56331;51.992;20.910;2023-06-14T04:40:00;1.07;;;0.90;;
69220;SDS011;56331;51.992;20.910;2023-06-14T04:42:26;2.08;;;1.00;;
69220;SDS011;56331;51.992;20.910;2023-06-14T04:44:56;1.20;;;1.00;;
69220;SDS011;56331;51.992;20.910;2023-06-14T04:47:26;1.17;;;0.90;;
69220;SDS011;56331;51.992;20.910;2023-06-14T04:49:55;1.30;;;0.82;;
69220;SDS011;56331;51.992;20.910;2023-06-14T04:52:25;1.10;;;0.90;;
69220;SDS011;56331;51.992;20.910;2023-06-14T04:54:52;1.52;;;1.12;;
69220;SDS011;56331;51.992;20.910;2023-06-14T04:57:20;1.17;;;0.93;;
69220;SDS011;56331;51.992;20.910;2023-06-14T04:59:48;0.95;;;0.75;;
69220;SDS011;56331;51.992;20.910;2023-06-14T05:02:16;1.10;;;0.88;;
69220;SDS011;56331;51.992;20.910;2023-06-14T05:04:43;1.10;;;0.78;;
69220;SDS011;56331;51.992;20.910;2023-06-14T05:07:09;1.10;;;1.00;;
69220;SDS011;56331;51.992;20.910;2023-06-14T05:09:36;1.45;;;1.15;;
69220;SDS011;56331;51.992;20.910;2023-06-14T05:12:03;1.20;;;1.10;;
69220;SDS011;56331;51.992;20.910;2023-06-14T05:14:30;1.02;;;0.78;;
69220;SDS011;56331;51.992;20.910;2023-06-14T05:16:57;1.10;;;0.98;;
69220;SDS011;56331;51.992;20.910;2023-06-14T05:19:23;1.40;;;1.30;;
69220;SDS011;56331;51.992;20.910;2023-06-14T05:21:50;1.27;;;1.10;;
69220;SDS011;56331;51.992;20.910;2023-06-14T05:24:16;1.35;;;1.00;;
69220;SDS011;56331;51.992;20.910;2023-06-14T05:26:43;1.25;;;0.88;;
69220;SDS011;56331;51.992;20.910;2023-06-14T05:29:09;1.90;;;1.10;;
69220;SDS011;56331;51.992;20.910;2023-06-14T05:31:36;1.10;;;0.98;;
69220;SDS011;56331;51.992;20.910;2023-06-14T05:34:03;1.15;;;1.02;;
69220;SDS011;56331;51.992;20.910;2023-06-14T05:36:30;1.90;;;1.07;;
69220;SDS011;56331;51.992;20.910;2023-06-14T05:38:57;1.20;;;1.02;;
69220;SDS011;56331;51.992;20.910;2023-06-14T05:41:25;1.42;;;1.02;;
69220;SDS011;56331;51.992;20.910;2023-06-14T05:43:53;1.35;;;1.00;;
69220;SDS011;56331;51.992;20.910;2023-06-14T05:46:21;1.95;;;1.17;;
69220;SDS011;56331;51.992;20.910;2023-06-14T05:48:50;1.98;;;1.17;;
69220;SDS011;56331;51.992;20.910;2023-06-14T05:51:17;3.40;;;1.42;;
69220;SDS011;56331;51.992;20.910;2023-06-14T05:53:46;1.50;;;1.20;;
69220;SDS011;56331;51.992;20.910;2023-06-14T05:56:13;1.07;;;0.93;;
69220;SDS011;56331;51.992;20.910;2023-06-14T05:58:43;1.35;;;1.00;;
69220;SDS011;56331;51.992;20.910;2023-06-14T06:01:10;1.60;;;1.20;;
69220;SDS011;56331;51.992;20.910;2023-06-14T06:03:37;2.62;;;1.25;;
69220;SDS011;56331;51.992;20.910;2023-06-14T06:06:03;2.58;;;1.15;;
69220;SDS011;56331;51.992;20.910;2023-06-14T06:08:30;1.05;;;0.95;;
69220;SDS011;56331;51.992;20.910;2023-06-14T06:10:58;2.22;;;1.20;;
69220;SDS011;56331;51.992;20.910;2023-06-14T06:13:27;2.17;;;1.27;;
69220;SDS011;56331;51.992;20.910;2023-06-14T06:15:53;1.80;;;1.20;;
69220;SDS011;56331;51.992;20.910;2023-06-14T06:18:20;1.35;;;1.05;;
69220;SDS011;56331;51.992;20.910;2023-06-14T06:20:46;1.65;;;1.40;;
69220;SDS011;56331;51.992;20.910;2023-06-14T06:23:13;2.92;;;1.00;;
69220;SDS011;56331;51.992;20.910;2023-06-14T06:25:39;4.40;;;1.42;;
69220;SDS011;56331;51.992;20.910;2023-06-14T06:28:06;1.95;;;1.35;;
69220;SDS011;56331;51.992;20.910;2023-06-14T06:30:32;1.45;;;1.00;;
69220;SDS011;56331;51.992;20.910;2023-06-14T06:32:58;2.47;;;1.30;;
69220;SDS011;56331;51.992;20.910;2023-06-14T06:35:25;1.50;;;1.00;;
69220;SDS011;56331;51.992;20.910;2023-06-14T06:37:51;2.42;;;1.50;;
69220;SDS011;56331;51.992;20.910;2023-06-14T06:40:18;1.80;;;1.20;;
69220;SDS011;56331;51.992;20.910;2023-06-14T06:42:45;1.92;;;1.17;;
69220;SDS011;56331;51.992;20.910;2023-06-14T06:45:11;2.67;;;1.25;;
69220;SDS011;56331;51.992;20.910;2023-06-14T06:47:38;1.80;;;1.30;;
69220;SDS011;56331;51.992;20.910;2023-06-14T06:50:04;1.67;;;1.40;;
69220;SDS011;56331;51.992;20.910;2023-06-14T06:52:33;2.00;;;1.30;;
69220;SDS011;56331;51.992;20.910;2023-06-14T06:55:00;2.27;;;1.47;;
69220;SDS011;56331;51.992;20.910;2023-06-14T06:57:26;5.22;;;1.40;;
69220;SDS011;56331;51.992;20.910;2023-06-14T06:59:54;1.82;;;1.20;;
69220;SDS011;56331;51.992;20.910;2023-06-14T07:02:21;1.25;;;1.10;;
69220;SDS011;56331;51.992;20.910;2023-06-14T07:04:47;2.27;;;1.50;;
69220;SDS011;56331;51.992;20.910;2023-06-14T07:07:13;1.42;;;1.25;;
69220;SDS011;56331;51.992;20.910;2023-06-14T07:09:39;3.00;;;1.30;;
69220;SDS011;56331;51.992;20.910;2023-06-14T07:12:08;2.37;;;1.32;;
69220;SDS011;56331;51.992;20.910;2023-06-14T07:14:34;2.22;;;1.25;;
69220;SDS011;56331;51.992;20.910;2023-06-14T07:17:01;1.90;;;1.30;;
69220;SDS011;56331;51.992;20.910;2023-06-14T07:19:28;2.10;;;1.40;;
69220;SDS011;56331;51.992;20.910;2023-06-14T07:21:54;1.50;;;1.30;;
69220;SDS011;56331;51.992;20.910;2023-06-14T07:24:21;1.55;;;1.40;;
69220;SDS011;56331;51.992;20.910;2023-06-14T07:26:47;2.85;;;1.60;;
69220;SDS011;56331;51.992;20.910;2023-06-14T07:29:17;1.95;;;1.40;;
69220;SDS011;56331;51.992;20.910;2023-06-14T07:31:44;1.62;;;1.40;;
69220;SDS011;56331;51.992;20.910;2023-06-14T07:34:10;2.40;;;1.50;;
69220;SDS011;56331;51.992;20.910;2023-06-14T07:36:37;2.45;;;1.52;;
69220;SDS011;56331;51.992;20.910;2023-06-14T07:39:04;1.67;;;1.57;;
69220;SDS011;56331;51.992;20.910;2023-06-14T07:41:32;6.58;;;1.80;;
69220;SDS011;56331;51.992;20.910;2023-06-14T07:43:58;4.22;;;1.47;;
69220;SDS011;56331;51.992;20.910;2023-06-14T07:46:25;5.17;;;1.70;;
69220;SDS011;56331;51.992;20.910;2023-06-14T07:48:51;8.65;;;2.02;;
69220;SDS011;56331;51.992;20.910;2023-06-14T07:51:17;4.83;;;1.75;;
69220;SDS011;56331;51.992;20.910;2023-06-14T07:53:44;4.12;;;1.92;;
69220;SDS011;56331;51.992;20.910;2023-06-14T07:56:10;4.30;;;1.55;;
69220;SDS011;56331;51.992;20.910;2023-06-14T07:58:36;4.75;;;2.02;;
69220;SDS011;56331;51.992;20.910;2023-06-14T08:01:05;6.25;;;1.80;;
69220;SDS011;56331;51.992;20.910;2023-06-14T08:03:33;5.03;;;1.40;;
69220;SDS011;56331;51.992;20.910;2023-06-14T08:06:01;6.25;;;1.90;;
69220;SDS011;56331;51.992;20.910;2023-06-14T08:08:28;3.22;;;1.52;;
69220;SDS011;56331;51.992;20.910;2023-06-14T08:10:54;4.22;;;1.65;;
69220;SDS011;56331;51.992;20.910;2023-06-14T08:13:20;3.95;;;1.70;;
69220;SDS011;56331;51.992;20.910;2023-06-14T08:15:47;2.58;;;1.70;;
69220;SDS011;56331;51.992;20.910;2023-06-14T08:18:14;4.28;;;1.90;;
69220;SDS011;56331;51.992;20.910;2023-06-14T08:20:40;2.77;;;1.65;;
69220;SDS011;56331;51.992;20.910;2023-06-14T08:23:07;2.92;;;1.40;;
69220;SDS011;56331;51.992;20.910;2023-06-14T08:25:34;3.92;;;1.72;;
69220;SDS011;56331;51.992;20.910;2023-06-14T08:28:01;2.45;;;1.70;;
69220;SDS011;56331;51.992;20.910;2023-06-14T08:30:27;5.28;;;1.92;;
69220;SDS011;56331;51.992;20.910;2023-06-14T08:32:53;5.15;;;2.40;;
69220;SDS011;56331;51.992;20.910;2023-06-14T08:35:22;5.45;;;1.80;;
69220;SDS011;56331;51.992;20.910;2023-06-14T08:37:49;7.28;;;2.10;;
69220;SDS011;56331;51.992;20.910;2023-06-14T08:40:19;3.95;;;2.00;;
69220;SDS011;56331;51.992;20.910;2023-06-14T08:42:52;4.58;;;2.10;;
69220;SDS011;56331;51.992;20.910;2023-06-14T08:45:20;4.45;;;1.72;;
69220;SDS011;56331;51.992;20.910;2023-06-14T08:47:47;3.77;;;1.98;;
69220;SDS011;56331;51.992;20.910;2023-06-14T08:50:21;3.17;;;1.80;;
69220;SDS011;56331;51.992;20.910;2023-06-14T08:52:53;8.20;;;2.02;;
69220;SDS011;56331;51.992;20.910;2023-06-14T08:55:23;5.40;;;2.05;;
69220;SDS011;56331;51.992;20.910;2023-06-14T08:57:52;6.35;;;1.90;;
69220;SDS011;56331;51.992;20.910;2023-06-14T09:00:20;4.45;;;1.92;;
69220;SDS011;56331;51.992;20.910;2023-06-14T09:02:48;5.17;;;2.30;;
69220;SDS011;56331;51.992;20.910;2023-06-14T09:05:14;6.25;;;1.98;;
69220;SDS011;56331;51.992;20.910;2023-06-14T09:07:44;4.60;;;2.10;;
69220;SDS011;56331;51.992;20.910;2023-06-14T09:10:14;5.10;;;2.05;;
69220;SDS011;56331;51.992;20.910;2023-06-14T09:12:41;6.22;;;1.60;;
69220;SDS011;56331;51.992;20.910;2023-06-14T09:15:08;3.98;;;1.80;;
69220;SDS011;56331;51.992;20.910;2023-06-14T09:17:36;3.92;;;1.77;;
69220;SDS011;56331;51.992;20.910;2023-06-14T09:20:08;5.85;;;2.10;;
69220;SDS011;56331;51.992;20.910;2023-06-14T09:22:35;4.70;;;1.80;;
69220;SDS011;56331;51.992;20.910;2023-06-14T09:25:04;4.45;;;1.90;;
69220;SDS011;56331;51.992;20.910;2023-06-14T09:27:32;2.40;;;1.62;;
69220;SDS011;56331;51.992;20.910;2023-06-14T09:29:59;3.87;;;1.70;;
69220;SDS011;56331;51.992;20.910;2023-06-14T09:32:25;2.95;;;1.72;;
69220;SDS011;56331;51.992;20.910;2023-06-14T09:34:52;3.25;;;1.45;;
69220;SDS011;56331;51.992;20.910;2023-06-14T09:37:29;3.45;;;1.62;;
69220;SDS011;56331;51.992;20.910;2023-06-14T09:39:57;2.55;;;1.90;;
69220;SDS011;56331;51.992;20.910;2023-06-14T09:42:25;3.33;;;1.57;;
69220;SDS011;56331;51.992;20.910;2023-06-14T09:44:54;4.58;;;1.67;;
69220;SDS011;56331;51.992;20.910;2023-06-14T09:47:22;4.50;;;1.60;;
69220;SDS011;56331;51.992;20.910;2023-06-14T09:49:50;3.83;;;1.82;;
69220;SDS011;56331;51.992;20.910;2023-06-14T09:52:17;5.37;;;3.05;;
69220;SDS011;56331;51.992;20.910;2023-06-14T09:54:46;8.53;;;3.10;;
69220;SDS011;56331;51.992;20.910;2023-06-14T09:57:13;8.33;;;2.22;;
69220;SDS011;56331;51.992;20.910;2023-06-14T09:59:46;4.35;;;2.15;;
69220;SDS011;56331;51.992;20.910;2023-06-14T10:02:14;4.30;;;2.20;;
69220;SDS011;56331;51.992;20.910;2023-06-14T10:04:50;7.37;;;2.10;;
69220;SDS011;56331;51.992;20.910;2023-06-14T10:07:18;5.55;;;2.10;;
69220;SDS011;56331;51.992;20.910;2023-06-14T10:09:46;4.80;;;2.00;;
69220;SDS011;56331;51.992;20.910;2023-06-14T10:12:18;4.60;;;2.17;;
69220;SDS011;56331;51.992;20.910;2023-06-14T10:14:48;6.30;;;2.50;;
69220;SDS011;56331;51.992;20.910;2023-06-14T10:17:26;3.42;;;2.00;;
69220;SDS011;56331;51.992;20.910;2023-06-14T10:20:02;3.22;;;1.90;;
69220;SDS011;56331;51.992;20.910;2023-06-14T10:22:41;7.50;;;3.72;;
69220;SDS011;56331;51.992;20.910;2023-06-14T10:25:06;6.47;;;2.40;;
69220;SDS011;56331;51.992;20.910;2023-06-14T10:27:35;5.33;;;2.40;;
69220;SDS011;56331;51.992;20.910;2023-06-14T10:30:02;5.22;;;2.40;;
69220;SDS011;56331;51.992;20.910;2023-06-14T10:32:29;3.60;;;2.20;;
69220;SDS011;56331;51.992;20.910;2023-06-14T10:35:00;3.95;;;2.50;;
69220;SDS011;56331;51.992;20.910;2023-06-14T10:37:34;4.80;;;2.47;;
69220;SDS011;56331;51.992;20.910;2023-06-14T10:40:01;4.55;;;2.27;;
69220;SDS011;56331;51.992;20.910;2023-06-14T10:42:29;3.17;;;2.40;;
69220;SDS011;56331;51.992;20.910;2023-06-14T10:45:00;5.05;;;2.37;;
69220;SDS011;56331;51.992;20.910;2023-06-14T10:47:36;2.45;;;2.05;;
69220;SDS011;56331;51.992;20.910;2023-06-14T10:50:05;3.95;;;2.10;;
69220;SDS011;56331;51.992;20.910;2023-06-14T10:52:35;3.27;;;2.17;;
69220;SDS011;56331;51.992;20.910;2023-06-14T10:55:16;3.25;;;1.90;;
69220;SDS011;56331;51.992;20.910;2023-06-14T10:57:45;5.17;;;2.22;;
69220;SDS011;56331;51.992;20.910;2023-06-14T11:00:21;4.15;;;2.00;;
69220;SDS011;56331;51.992;20.910;2023-06-14T11:11:07;5.72;;;2.22;;
69220;SDS011;56331;51.992;20.910;2023-06-14T11:13:36;7.25;;;2.85;;
69220;SDS011;56331;51.992;20.910;2023-06-14T11:16:17;7.17;;;2.42;;
69220;SDS011;56331;51.992;20.910;2023-06-14T11:18:40;3.98;;;2.00;;
69220;SDS011;56331;51.992;20.910;2023-06-14T11:21:08;4.28;;;2.17;;
69220;SDS011;56331;51.992;20.910;2023-06-14T11:23:35;2.20;;;1.70;;
69220;SDS011;56331;51.992;20.910;2023-06-14T11:26:02;3.52;;;1.82;;
69220;SDS011;56331;51.992;20.910;2023-06-14T11:28:37;3.55;;;1.90;;
69220;SDS011;56331;51.992;20.910;2023-06-14T11:31:06;2.87;;;1.92;;
69220;SDS011;56331;51.992;20.910;2023-06-14T11:33:32;4.78;;;2.20;;
69220;SDS011;56331;51.992;20.910;2023-06-14T11:36:03;2.90;;;1.72;;
69220;SDS011;56331;51.992;20.910;2023-06-14T11:38:36;2.40;;;1.55;;
69220;SDS011;56331;51.992;20.910;2023-06-14T11:41:03;4.03;;;2.02;;
69220;SDS011;56331;51.992;20.910;2023-06-14T11:43:29;3.30;;;1.80;;
69220;SDS011;56331;51.992;20.910;2023-06-14T11:45:58;2.87;;;1.95;;
69220;SDS011;56331;51.992;20.910;2023-06-14T11:48:41;2.08;;;1.70;;
69220;SDS011;56331;51.992;20.910;2023-06-14T11:51:08;4.78;;;1.90;;
69220;SDS011;56331;51.992;20.910;2023-06-14T11:53:34;2.62;;;1.87;;
69220;SDS011;56331;51.992;20.910;2023-06-14T11:56:01;2.52;;;1.62;;
69220;SDS011;56331;51.992;20.910;2023-06-14T11:58:28;3.35;;;2.10;;
69220;SDS011;56331;51.992;20.910;2023-06-14T12:00:55;3.95;;;1.87;;
69220;SDS011;56331;51.992;20.910;2023-06-14T12:03:25;3.02;;;1.70;;
69220;SDS011;56331;51.992;20.910;2023-06-14T12:06:07;2.60;;;1.85;;
69220;SDS011;56331;51.992;20.910;2023-06-14T12:08:35;3.30;;;1.72;;
69220;SDS011;56331;51.992;20.910;2023-06-14T12:13:32;3.17;;;1.70;;
69220;SDS011;56331;51.992;20.910;2023-06-14T12:15:58;3.25;;;1.40;;
69220;SDS011;56331;51.992;20.910;2023-06-14T12:18:31;1.77;;;1.50;;
69220;SDS011;56331;51.992;20.910;2023-06-14T12:21:00;2.15;;;1.75;;
69220;SDS011;56331;51.992;20.910;2023-06-14T12:23:44;2.02;;;1.50;;
69220;SDS011;56331;51.992;20.910;2023-06-14T12:26:12;2.87;;;1.72;;
69220;SDS011;56331;51.992;20.910;2023-06-14T12:28:40;3.17;;;1.90;;
69220;SDS011;56331;51.992;20.910;2023-06-14T12:31:11;7.00;;;1.77;;
69220;SDS011;56331;51.992;20.910;2023-06-14T12:33:38;6.33;;;2.17;;
69220;SDS011;56331;51.992;20.910;2023-06-14T12:36:07;5.85;;;2.65;;
69220;SDS011;56331;51.992;20.910;2023-06-14T12:38:35;9.70;;;2.27;;
69220;SDS011;56331;51.992;20.910;2023-06-14T12:41:01;6.65;;;2.33;;
69220;SDS011;56331;51.992;20.910;2023-06-14T12:43:28;7.92;;;2.50;;
69220;SDS011;56331;51.992;20.910;2023-06-14T12:45:54;2.98;;;2.42;;
69220;SDS011;56331;51.992;20.910;2023-06-14T12:48:23;7.00;;;2.22;;
69220;SDS011;56331;51.992;20.910;2023-06-14T12:50:49;5.28;;;2.58;;
69220;SDS011;56331;51.992;20.910;2023-06-14T12:53:17;4.05;;;2.35;;
69220;SDS011;56331;51.992;20.910;2023-06-14T12:55:44;5.50;;;2.02;;
69220;SDS011;56331;51.992;20.910;2023-06-14T12:58:11;3.47;;;2.20;;
69220;SDS011;56331;51.992;20.910;2023-06-14T13:00:40;4.62;;;2.22;;
69220;SDS011;56331;51.992;20.910;2023-06-14T13:03:06;6.85;;;2.85;;
69220;SDS011;56331;51.992;20.910;2023-06-14T13:05:33;5.10;;;2.30;;
69220;SDS011;56331;51.992;20.910;2023-06-14T13:07:59;3.52;;;2.00;;
69220;SDS011;56331;51.992;20.910;2023-06-14T13:10:26;3.25;;;2.22;;
69220;SDS011;56331;51.992;20.910;2023-06-14T13:12:53;2.85;;;1.75;;
69220;SDS011;56331;51.992;20.910;2023-06-14T13:15:20;3.62;;;1.85;;
69220;SDS011;56331;51.992;20.910;2023-06-14T13:17:46;3.80;;;2.10;;
69220;SDS011;56331;51.992;20.910;2023-06-14T13:20:14;3.70;;;1.95;;
69220;SDS011;56331;51.992;20.910;2023-06-14T13:22:43;7.40;;;2.05;;
69220;SDS011;56331;51.992;20.910;2023-06-14T13:25:10;3.80;;;1.80;;
69220;SDS011;56331;51.992;20.910;2023-06-14T13:27:36;3.40;;;1.70;;
69220;SDS011;56331;51.992;20.910;2023-06-14T13:30:03;2.70;;;1.82;;
69220;SDS011;56331;51.992;20.910;2023-06-14T13:32:31;3.83;;;1.80;;
69220;SDS011;56331;51.992;20.910;2023-06-14T13:34:58;4.65;;;1.65;;
69220;SDS011;56331;51.992;20.910;2023-06-14T13:37:24;4.45;;;1.62;;
69220;SDS011;56331;51.992;20.910;2023-06-14T13:39:50;2.70;;;1.70;;
69220;SDS011;56331;51.992;20.910;2023-06-14T13:42:17;4.12;;;1.70;;
69220;SDS011;56331;51.992;20.910;2023-06-14T13:44:44;3.40;;;1.90;;
69220;SDS011;56331;51.992;20.910;2023-06-14T13:47:10;3.83;;;1.85;;
69220;SDS011;56331;51.992;20.910;2023-06-14T13:49:37;3.47;;;1.98;;
69220;SDS011;56331;51.992;20.910;2023-06-14T13:52:04;3.30;;;1.77;;
69220;SDS011;56331;51.992;20.910;2023-06-14T13:54:31;4.17;;;1.65;;
69220;SDS011;56331;51.992;20.910;2023-06-14T13:56:58;5.75;;;1.70;;
69220;SDS011;56331;51.992;20.910;2023-06-14T13:59:24;5.22;;;2.00;;
69220;SDS011;56331;51.992;20.910;2023-06-14T14:01:51;7.37;;;1.82;;
69220;SDS011;56331;51.992;20.910;2023-06-14T14:04:18;5.12;;;1.82;;
69220;SDS011;56331;51.992;20.910;2023-06-14T14:06:44;5.85;;;1.77;;
69220;SDS011;56331;51.992;20.910;2023-06-14T14:09:12;2.87;;;1.47;;
69220;SDS011;56331;51.992;20.910;2023-06-14T14:11:38;5.33;;;1.70;;
69220;SDS011;56331;51.992;20.910;2023-06-14T14:14:05;5.35;;;1.82;;
69220;SDS011;56331;51.992;20.910;2023-06-14T14:16:31;2.65;;;1.90;;
69220;SDS011;56331;51.992;20.910;2023-06-14T14:18:58;5.90;;;1.87;;
69220;SDS011;56331;51.992;20.910;2023-06-14T14:21:25;4.70;;;1.77;;
69220;SDS011;56331;51.992;20.910;2023-06-14T14:23:51;5.05;;;1.80;;
69220;SDS011;56331;51.992;20.910;2023-06-14T14:26:21;2.62;;;1.67;;
69220;SDS011;56331;51.992;20.910;2023-06-14T14:28:49;2.35;;;1.50;;
69220;SDS011;56331;51.992;20.910;2023-06-14T14:31:16;2.55;;;1.52;;
69220;SDS011;56331;51.992;20.910;2023-06-14T14:33:42;3.60;;;1.77;;
69220;SDS011;56331;51.992;20.910;2023-06-14T14:36:09;4.35;;;1.87;;
69220;SDS011;56331;51.992;20.910;2023-06-14T14:38:35;3.80;;;1.70;;
69220;SDS011;56331;51.992;20.910;2023-06-14T14:41:01;2.98;;;1.72;;
69220;SDS011;56331;51.992;20.910;2023-06-14T14:43:28;3.08;;;1.92;;
69220;SDS011;56331;51.992;20.910;2023-06-14T14:45:56;2.22;;;1.75;;
69220;SDS011;56331;51.992;20.910;2023-06-14T14:48:23;3.55;;;1.82;;
69220;SDS011;56331;51.992;20.910;2023-06-14T14:50:51;2.52;;;1.40;;
69220;SDS011;56331;51.992;20.910;2023-06-14T14:53:17;4.40;;;2.20;;